sensor_id;sensor_type;location;lat;lon;timestamp;pressure;altitude;pressure_sealevel;temperature;humidity
60099;BME280;62818;49.394;8.686;2023-06-22T00:00:42;100285.16;;;24.09;77.50
60099;BME280;62818;49.394;8.686;2023-06-22T00:01:43;100281.94;;;24.12;77.01
60099;BME280;62818;49.394;8.686;2023-06-22T00:02:44;100281.91;;;24.07;77.67
60099;BME280;62818;49.394;8.686;2023-06-22T00:03:44;100285.69;;;24.06;77.75
60099;BME280;62818;49.394;8.686;2023-06-22T00:04:45;100285.66;;;24.01;77.79
60099;BME280;62818;49.394;8.686;2023-06-22T00:05:46;100282.97;;;24.06;77.75
60099;BME280;62818;49.394;8.686;2023-06-22T00:06:47;100278.06;;;24.03;78.38
60099;BME280;62818;49.394;8.686;2023-06-22T00:07:48;100284.00;;;24.00;78.43
60099;BME280;62818;49.394;8.686;2023-06-22T00:08:48;100291.06;;;24.01;78.25
60099;BME280;62818;49.394;8.686;2023-06-22T00:09:49;100289.97;;;23.97;78.39
60099;BME280;62818;49.394;8.686;2023-06-22T00:10:49;100289.50;;;24.10;77.68
60099;BME280;62818;49.394;8.686;2023-06-22T00:11:50;100296.00;;;24.09;77.65
60099;BME280;62818;49.394;8.686;2023-06-22T00:12:50;100285.72;;;24.11;77.42
60099;BME280;62818;49.394;8.686;2023-06-22T00:13:50;100291.41;;;24.09;77.46
60099;BME280;62818;49.394;8.686;2023-06-22T00:14:51;100290.59;;;24.14;77.59
60099;BME280;62818;49.394;8.686;2023-06-22T00:15:51;100295.44;;;24.07;78.12
60099;BME280;62818;49.394;8.686;2023-06-22T00:16:52;100290.31;;;24.10;77.69
60099;BME280;62818;49.394;8.686;2023-06-22T00:17:57;100294.69;;;24.16;77.45
60099;BME280;62818;49.394;8.686;2023-06-22T00:18:59;100293.28;;;24.09;77.76
60099;BME280;62818;49.394;8.686;2023-06-22T00:20:00;100298.97;;;24.07;77.47
60099;BME280;62818;49.394;8.686;2023-06-22T00:21:01;100297.09;;;24.08;77.83
60099;BME280;62818;49.394;8.686;2023-06-22T00:22:01;100293.00;;;24.05;78.46
60099;BME280;62818;49.394;8.686;2023-06-22T00:23:05;100301.41;;;24.09;77.93
60099;BME280;62818;49.394;8.686;2023-06-22T00:24:09;100297.63;;;24.15;77.35
60099;BME280;62818;49.394;8.686;2023-06-22T00:25:10;100291.66;;;24.13;78.21
60099;BME280;62818;49.394;8.686;2023-06-22T00:26:11;100293.00;;;24.05;78.82
60099;BME280;62818;49.394;8.686;2023-06-22T00:27:12;100294.91;;;24.15;78.45
60099;BME280;62818;49.394;8.686;2023-06-22T00:28:12;100295.47;;;24.17;77.86
60099;BME280;62818;49.394;8.686;2023-06-22T00:29:13;100298.19;;;24.22;77.92
60099;BME280;62818;49.394;8.686;2023-06-22T00:30:14;100298.72;;;24.19;77.84
60099;BME280;62818;49.394;8.686;2023-06-22T00:31:16;100304.72;;;24.21;77.76
60099;BME280;62818;49.394;8.686;2023-06-22T00:32:16;100304.69;;;24.16;78.01
60099;BME280;62818;49.394;8.686;2023-06-22T00:33:17;100311.06;;;23.90;79.68
60099;BME280;62818;49.394;8.686;2023-06-22T00:34:18;100311.00;;;23.80;80.95
60099;BME280;62818;49.394;8.686;2023-06-22T00:35:18;100320.25;;;23.89;80.70
60099;BME280;62818;49.394;8.686;2023-06-22T00:36:19;100329.72;;;23.81;80.80
60099;BME280;62818;49.394;8.686;2023-06-22T00:37:19;100326.97;;;23.76;81.84
60099;BME280;62818;49.394;8.686;2023-06-22T00:38:22;100334.13;;;23.55;83.44
60099;BME280;62818;49.394;8.686;2023-06-22T00:39:23;100330.88;;;23.53;83.80
60099;BME280;62818;49.394;8.686;2023-06-22T00:40:24;100342.75;;;23.47;84.05
60099;BME280;62818;49.394;8.686;2023-06-22T00:41:24;100356.00;;;23.44;84.24
60099;BME280;62818;49.394;8.686;2023-06-22T00:42:28;100366.50;;;23.40;84.63
60099;BME280;62818;49.394;8.686;2023-06-22T00:43:29;100390.81;;;23.35;84.83
60099;BME280;62818;49.394;8.686;2023-06-22T00:44:29;100394.47;;;23.24;86.68
60099;BME280;62818;49.394;8.686;2023-06-22T00:45:30;100415.00;;;23.20;87.14
60099;BME280;62818;49.394;8.686;2023-06-22T00:46:31;100442.09;;;23.25;87.45
60099;BME280;62818;49.394;8.686;2023-06-22T00:47:34;100466.84;;;23.12;88.32
60099;BME280;62818;49.394;8.686;2023-06-22T00:48:35;100492.06;;;23.18;88.19
60099;BME280;62818;49.394;8.686;2023-06-22T00:49:37;100533.38;;;23.13;87.76
60099;BME280;62818;49.394;8.686;2023-06-22T00:50:39;100560.44;;;23.13;88.05
60099;BME280;62818;49.394;8.686;2023-06-22T00:51:40;100595.91;;;23.38;87.09
60099;BME280;62818;49.394;8.686;2023-06-22T00:52:46;100617.56;;;23.38;86.70
60099;BME280;62818;49.394;8.686;2023-06-22T00:53:49;100639.19;;;23.38;87.14
60099;BME280;62818;49.394;8.686;2023-06-22T00:54:50;100641.97;;;23.43;87.51
60099;BME280;62818;49.394;8.686;2023-06-22T00:55:51;100659.22;;;23.37;88.00
60099;BME280;62818;49.394;8.686;2023-06-22T00:56:53;100671.78;;;23.48;87.59
60099;BME280;62818;49.394;8.686;2023-06-22T00:57:55;100685.56;;;23.47;87.99
60099;BME280;62818;49.394;8.686;2023-06-22T00:58:57;100678.56;;;23.29;90.19
60099;BME280;62818;49.394;8.686;2023-06-22T00:59:59;100649.75;;;23.18;92.10
60099;BME280;62818;49.394;8.686;2023-06-22T01:01:00;100624.75;;;23.11;93.37
60099;BME280;62818;49.394;8.686;2023-06-22T01:02:01;100571.88;;;23.20;92.75
60099;BME280;62818;49.394;8.686;2023-06-22T01:03:02;100496.66;;;23.17;93.68
60099;BME280;62818;49.394;8.686;2023-06-22T01:04:03;100422.84;;;22.90;98.24
60099;BME280;62818;49.394;8.686;2023-06-22T01:05:05;100370.16;;;22.66;100.00
60099;BME280;62818;49.394;8.686;2023-06-22T01:06:10;100330.72;;;22.22;100.00
60099;BME280;62818;49.394;8.686;2023-06-22T01:07:53;100334.94;;;22.12;100.00
60099;BME280;62818;49.394;8.686;2023-06-22T01:09:22;100351.72;;;21.76;100.00
60099;BME280;62818;49.394;8.686;2023-06-22T01:10:51;100345.75;;;21.74;100.00
60099;BME280;62818;49.394;8.686;2023-06-22T01:12:00;100326.78;;;21.69;100.00
60099;BME280;62818;49.394;8.686;2023-06-22T01:13:21;100295.44;;;21.63;100.00
60099;BME280;62818;49.394;8.686;2023-06-22T01:16:07;100216.28;;;21.36;100.00
60099;BME280;62818;49.394;8.686;2023-06-22T01:17:37;100177.78;;;21.19;100.00
60099;BME280;62818;49.394;8.686;2023-06-22T01:18:42;100174.09;;;21.25;100.00
60099;BME280;62818;49.394;8.686;2023-06-22T01:19:52;100171.47;;;21.30;100.00
60099;BME280;62818;49.394;8.686;2023-06-22T01:20:56;100175.34;;;21.39;100.00
60099;BME280;62818;49.394;8.686;2023-06-22T01:22:00;100192.50;;;21.33;100.00
60099;BME280;62818;49.394;8.686;2023-06-22T01:23:33;100222.00;;;21.61;100.00
60099;BME280;62818;49.394;8.686;2023-06-22T01:25:09;100241.66;;;21.78;100.00
60099;BME280;62818;49.394;8.686;2023-06-22T01:26:19;100283.41;;;21.92;100.00
60099;BME280;62818;49.394;8.686;2023-06-22T01:29:02;100345.41;;;22.31;100.00
60099;BME280;62818;49.394;8.686;2023-06-22T01:30:05;100373.09;;;22.21;100.00
60099;BME280;62818;49.394;8.686;2023-06-22T01:31:09;100388.00;;;22.24;100.00
60099;BME280;62818;49.394;8.686;2023-06-22T01:32:13;100397.09;;;22.18;100.00
60099;BME280;62818;49.394;8.686;2023-06-22T01:33:15;100404.63;;;22.16;100.00
60099;BME280;62818;49.394;8.686;2023-06-22T01:34:17;100400.00;;;22.11;100.00
60099;BME280;62818;49.394;8.686;2023-06-22T01:35:19;100413.50;;;21.94;100.00
60099;BME280;62818;49.394;8.686;2023-06-22T01:36:20;100404.28;;;21.90;100.00
60099;BME280;62818;49.394;8.686;2023-06-22T01:37:22;100406.25;;;21.95;100.00
60099;BME280;62818;49.394;8.686;2023-06-22T01:38:24;100404.94;;;21.97;100.00
60099;BME280;62818;49.394;8.686;2023-06-22T01:39:26;100399.97;;;21.89;100.00
60099;BME280;62818;49.394;8.686;2023-06-22T01:40:27;100394.50;;;21.84;100.00
60099;BME280;62818;49.394;8.686;2023-06-22T01:41:33;100404.88;;;22.14;100.00
60099;BME280;62818;49.394;8.686;2023-06-22T01:42:37;100392.38;;;21.53;100.00
60099;BME280;62818;49.394;8.686;2023-06-22T01:43:38;100394.50;;;21.51;100.00
60099;BME280;62818;49.394;8.686;2023-06-22T01:44:39;100398.34;;;21.38;100.00
60099;BME280;62818;49.394;8.686;2023-06-22T01:45:40;100392.22;;;21.43;100.00
60099;BME280;62818;49.394;8.686;2023-06-22T01:46:42;100395.31;;;21.35;100.00
60099;BME280;62818;49.394;8.686;2023-06-22T01:47:44;100388.84;;;21.53;100.00
60099;BME280;62818;49.394;8.686;2023-06-22T01:48:45;100388.56;;;22.04;100.00
60099;BME280;62818;49.394;8.686;2023-06-22T01:49:46;100385.03;;;22.25;100.00
60099;BME280;62818;49.394;8.686;2023-06-22T01:50:47;100380.16;;;22.00;100.00
60099;BME280;62818;49.394;8.686;2023-06-22T01:51:48;100382.06;;;21.67;100.00
60099;BME280;62818;49.394;8.686;2023-06-22T01:52:49;100384.38;;;21.41;100.00
60099;BME280;62818;49.394;8.686;2023-06-22T01:53:49;100380.31;;;21.39;100.00
60099;BME280;62818;49.394;8.686;2023-06-22T01:54:49;100382.22;;;21.43;100.00
60099;BME280;62818;49.394;8.686;2023-06-22T01:55:50;100371.78;;;21.47;100.00
60099;BME280;62818;49.394;8.686;2023-06-22T01:56:51;100373.34;;;21.43;100.00
60099;BME280;62818;49.394;8.686;2023-06-22T01:57:51;100366.41;;;21.47;100.00
60099;BME280;62818;49.394;8.686;2023-06-22T02:00:32;100369.44;;;21.72;100.00
60099;BME280;62818;49.394;8.686;2023-06-22T02:01:44;100363.88;;;21.95;100.00
60099;BME280;62818;49.394;8.686;2023-06-22T02:03:11;100367.97;;;21.81;100.00
60099;BME280;62818;49.394;8.686;2023-06-22T02:04:25;100363.75;;;21.85;100.00
60099;BME280;62818;49.394;8.686;2023-06-22T02:05:36;100369.72;;;21.87;100.00
60099;BME280;62818;49.394;8.686;2023-06-22T02:06:43;100373.00;;;21.56;100.00
60099;BME280;62818;49.394;8.686;2023-06-22T02:07:52;100376.66;;;21.83;100.00
60099;BME280;62818;49.394;8.686;2023-06-22T02:09:00;100379.47;;;21.22;100.00
60099;BME280;62818;49.394;8.686;2023-06-22T02:10:06;100386.91;;;21.15;100.00
60099;BME280;62818;49.394;8.686;2023-06-22T02:11:10;100378.00;;;21.31;100.00
60099;BME280;62818;49.394;8.686;2023-06-22T02:12:17;100382.06;;;21.83;100.00
60099;BME280;62818;49.394;8.686;2023-06-22T02:13:21;100388.81;;;22.02;100.00
60099;BME280;62818;49.394;8.686;2023-06-22T02:14:24;100387.50;;;22.27;100.00
60099;BME280;62818;49.394;8.686;2023-06-22T02:15:25;100386.94;;;22.25;100.00
60099;BME280;62818;49.394;8.686;2023-06-22T02:16:26;100383.13;;;22.21;100.00
60099;BME280;62818;49.394;8.686;2023-06-22T02:17:30;100374.19;;;22.42;100.00
60099;BME280;62818;49.394;8.686;2023-06-22T02:18:33;100383.81;;;21.94;100.00
60099;BME280;62818;49.394;8.686;2023-06-22T02:19:36;100383.94;;;21.66;100.00
60099;BME280;62818;49.394;8.686;2023-06-22T02:20:38;100381.41;;;21.76;100.00
60099;BME280;62818;49.394;8.686;2023-06-22T02:21:39;100378.88;;;22.08;100.00
60099;BME280;62818;49.394;8.686;2023-06-22T02:22:40;100376.56;;;22.17;100.00
60099;BME280;62818;49.394;8.686;2023-06-22T02:23:41;100374.78;;;22.05;100.00
60099;BME280;62818;49.394;8.686;2023-06-22T02:24:41;100369.66;;;21.49;100.00
60099;BME280;62818;49.394;8.686;2023-06-22T02:25:42;100371.75;;;21.80;100.00
60099;BME280;62818;49.394;8.686;2023-06-22T02:26:44;100367.03;;;21.54;100.00
60099;BME280;62818;49.394;8.686;2023-06-22T02:27:45;100368.09;;;21.53;100.00
60099;BME280;62818;49.394;8.686;2023-06-22T02:28:46;100372.16;;;21.72;100.00
60099;BME280;62818;49.394;8.686;2023-06-22T02:29:46;100369.78;;;21.59;100.00
60099;BME280;62818;49.394;8.686;2023-06-22T02:30:47;100366.81;;;21.77;100.00
60099;BME280;62818;49.394;8.686;2023-06-22T02:31:47;100361.22;;;21.62;100.00
60099;BME280;62818;49.394;8.686;2023-06-22T02:32:48;100364.38;;;21.76;100.00
60099;BME280;62818;49.394;8.686;2023-06-22T02:33:48;100362.13;;;21.68;100.00
60099;BME280;62818;49.394;8.686;2023-06-22T02:34:49;100359.63;;;21.28;100.00
60099;BME280;62818;49.394;8.686;2023-06-22T02:35:49;100369.72;;;21.87;100.00
60099;BME280;62818;49.394;8.686;2023-06-22T02:36:50;100358.34;;;21.85;100.00
60099;BME280;62818;49.394;8.686;2023-06-22T02:37:51;100369.72;;;22.09;100.00
60099;BME280;62818;49.394;8.686;2023-06-22T02:38:52;100353.84;;;22.12;100.00
60099;BME280;62818;49.394;8.686;2023-06-22T02:39:54;100359.78;;;22.14;100.00
60099;BME280;62818;49.394;8.686;2023-06-22T02:40:54;100358.97;;;21.92;100.00
60099;BME280;62818;49.394;8.686;2023-06-22T02:41:55;100358.53;;;21.62;100.00
60099;BME280;62818;49.394;8.686;2023-06-22T02:42:56;100348.56;;;21.63;100.00
60099;BME280;62818;49.394;8.686;2023-06-22T02:44:02;100348.69;;;21.89;100.00
60099;BME280;62818;49.394;8.686;2023-06-22T02:45:03;100348.50;;;21.79;100.00
60099;BME280;62818;49.394;8.686;2023-06-22T02:46:03;100345.34;;;21.66;100.00
60099;BME280;62818;49.394;8.686;2023-06-22T02:47:04;100331.09;;;22.08;100.00
60099;BME280;62818;49.394;8.686;2023-06-22T02:48:05;100330.63;;;22.11;100.00
60099;BME280;62818;49.394;8.686;2023-06-22T02:49:05;100330.03;;;21.88;100.00
60099;BME280;62818;49.394;8.686;2023-06-22T02:50:06;100341.56;;;21.83;100.00
60099;BME280;62818;49.394;8.686;2023-06-22T02:51:07;100334.97;;;21.74;100.00
60099;BME280;62818;49.394;8.686;2023-06-22T02:52:08;100346.03;;;21.94;100.00
60099;BME280;62818;49.394;8.686;2023-06-22T02:53:09;100337.94;;;21.94;100.00
60099;BME280;62818;49.394;8.686;2023-06-22T02:54:09;100341.91;;;21.70;100.00
60099;BME280;62818;49.394;8.686;2023-06-22T02:55:10;100346.72;;;21.68;100.00
60099;BME280;62818;49.394;8.686;2023-06-22T02:56:10;100344.34;;;21.33;100.00
60099;BME280;62818;49.394;8.686;2023-06-22T02:57:11;100346.69;;;20.97;100.00
60099;BME280;62818;49.394;8.686;2023-06-22T02:58:13;100335.28;;;20.61;100.00
60099;BME280;62818;49.394;8.686;2023-06-22T02:59:14;100339.41;;;20.97;100.00
60099;BME280;62818;49.394;8.686;2023-06-22T03:00:14;100338.13;;;21.16;100.00
60099;BME280;62818;49.394;8.686;2023-06-22T03:01:18;100340.16;;;21.26;100.00
60099;BME280;62818;49.394;8.686;2023-06-22T03:02:24;100326.69;;;21.26;100.00
60099;BME280;62818;49.394;8.686;2023-06-22T03:03:26;100325.03;;;20.92;100.00
60099;BME280;62818;49.394;8.686;2023-06-22T03:04:27;100320.66;;;21.19;100.00
60099;BME280;62818;49.394;8.686;2023-06-22T03:05:27;100325.16;;;21.30;100.00
60099;BME280;62818;49.394;8.686;2023-06-22T03:06:27;100323.72;;;21.61;100.00
60099;BME280;62818;49.394;8.686;2023-06-22T03:07:28;100322.59;;;21.40;100.00
60099;BME280;62818;49.394;8.686;2023-06-22T03:08:30;100327.19;;;21.23;100.00
60099;BME280;62818;49.394;8.686;2023-06-22T03:09:30;100328.13;;;21.00;100.00
60099;BME280;62818;49.394;8.686;2023-06-22T03:10:31;100325.06;;;21.25;100.00
60099;BME280;62818;49.394;8.686;2023-06-22T03:11:32;100328.28;;;20.94;100.00
60099;BME280;62818;49.394;8.686;2023-06-22T03:12:33;100329.97;;;20.66;100.00
60099;BME280;62818;49.394;8.686;2023-06-22T03:13:34;100326.63;;;20.59;100.00
60099;BME280;62818;49.394;8.686;2023-06-22T03:14:34;100325.84;;;20.47;100.00
60099;BME280;62818;49.394;8.686;2023-06-22T03:15:35;100323.31;;;20.41;100.00
60099;BME280;62818;49.394;8.686;2023-06-22T03:16:35;100331.66;;;21.01;100.00
60099;BME280;62818;49.394;8.686;2023-06-22T03:17:37;100325.88;;;21.09;100.00
60099;BME280;62818;49.394;8.686;2023-06-22T03:18:39;100316.69;;;20.77;100.00
60099;BME280;62818;49.394;8.686;2023-06-22T03:19:39;100314.63;;;21.12;100.00
60099;BME280;62818;49.394;8.686;2023-06-22T03:20:39;100304.59;;;20.96;100.00
60099;BME280;62818;49.394;8.686;2023-06-22T03:21:40;100307.56;;;20.94;100.00
60099;BME280;62818;49.394;8.686;2023-06-22T03:22:41;100296.91;;;20.54;100.00
60099;BME280;62818;49.394;8.686;2023-06-22T03:23:43;100294.03;;;21.06;100.00
60099;BME280;62818;49.394;8.686;2023-06-22T03:24:43;100288.53;;;21.34;100.00
60099;BME280;62818;49.394;8.686;2023-06-22T03:25:44;100281.19;;;21.13;100.00
60099;BME280;62818;49.394;8.686;2023-06-22T03:26:47;100288.28;;;20.86;100.00
60099;BME280;62818;49.394;8.686;2023-06-22T03:27:48;100280.28;;;20.74;100.00
60099;BME280;62818;49.394;8.686;2023-06-22T03:28:49;100285.59;;;20.86;100.00
60099;BME280;62818;49.394;8.686;2023-06-22T03:29:49;100292.03;;;20.68;100.00
60099;BME280;62818;49.394;8.686;2023-06-22T03:30:50;100294.56;;;20.91;100.00
60099;BME280;62818;49.394;8.686;2023-06-22T03:31:50;100287.31;;;21.08;100.00
60099;BME280;62818;49.394;8.686;2023-06-22T03:32:51;100299.28;;;20.67;100.00
60099;BME280;62818;49.394;8.686;2023-06-22T03:33:52;100291.66;;;20.48;100.00
60099;BME280;62818;49.394;8.686;2023-06-22T03:34:52;100292.19;;;20.61;100.00
60099;BME280;62818;49.394;8.686;2023-06-22T03:35:53;100286.75;;;21.06;100.00
60099;BME280;62818;49.394;8.686;2023-06-22T03:36:54;100291.41;;;21.11;100.00
60099;BME280;62818;49.394;8.686;2023-06-22T03:37:54;100293.66;;;20.69;100.00
60099;BME280;62818;49.394;8.686;2023-06-22T03:38:55;100298.19;;;20.52;100.00
60099;BME280;62818;49.394;8.686;2023-06-22T03:39:55;100297.72;;;20.55;100.00
60099;BME280;62818;49.394;8.686;2023-06-22T03:40:56;100295.66;;;21.07;100.00
60099;BME280;62818;49.394;8.686;2023-06-22T03:41:57;100296.75;;;21.06;100.00
60099;BME280;62818;49.394;8.686;2023-06-22T03:42:58;100299.63;;;21.37;100.00
60099;BME280;62818;49.394;8.686;2023-06-22T03:43:58;100290.81;;;20.92;100.00
60099;BME280;62818;49.394;8.686;2023-06-22T03:44:59;100299.38;;;20.73;100.00
60099;BME280;62818;49.394;8.686;2023-06-22T03:46:01;100304.88;;;20.49;100.00
60099;BME280;62818;49.394;8.686;2023-06-22T03:47:05;100308.34;;;20.61;100.00
60099;BME280;62818;49.394;8.686;2023-06-22T03:48:07;100310.53;;;20.64;100.00
60099;BME280;62818;49.394;8.686;2023-06-22T03:49:07;100296.69;;;20.44;100.00
60099;BME280;62818;49.394;8.686;2023-06-22T03:50:08;100305.75;;;21.00;100.00
60099;BME280;62818;49.394;8.686;2023-06-22T03:51:09;100311.31;;;20.93;100.00
60099;BME280;62818;49.394;8.686;2023-06-22T03:52:10;100299.03;;;20.69;100.00
60099;BME280;62818;49.394;8.686;2023-06-22T03:53:11;100290.53;;;20.60;100.00
60099;BME280;62818;49.394;8.686;2023-06-22T03:54:11;100287.59;;;20.45;100.00
60099;BME280;62818;49.394;8.686;2023-06-22T03:55:12;100287.41;;;20.35;100.00
60099;BME280;62818;49.394;8.686;2023-06-22T03:56:12;100287.47;;;20.68;100.00
60099;BME280;62818;49.394;8.686;2023-06-22T03:57:13;100290.31;;;20.95;100.00
60099;BME280;62818;49.394;8.686;2023-06-22T03:58:13;100284.16;;;20.33;100.00
60099;BME280;62818;49.394;8.686;2023-06-22T03:59:14;100294.81;;;20.28;100.00
60099;BME280;62818;49.394;8.686;2023-06-22T04:00:14;100300.28;;;20.61;100.00
60099;BME280;62818;49.394;8.686;2023-06-22T04:01:18;100302.97;;;20.61;100.00
60099;BME280;62818;49.394;8.686;2023-06-22T04:02:19;100308.00;;;20.58;100.00
60099;BME280;62818;49.394;8.686;2023-06-22T04:03:19;100308.38;;;20.33;100.00
60099;BME280;62818;49.394;8.686;2023-06-22T04:04:20;100300.09;;;20.23;100.00
60099;BME280;62818;49.394;8.686;2023-06-22T04:05:21;100305.28;;;21.03;100.00
60099;BME280;62818;49.394;8.686;2023-06-22T04:06:21;100304.47;;;20.86;100.00
60099;BME280;62818;49.394;8.686;2023-06-22T04:07:22;100301.00;;;20.57;100.00
60099;BME280;62818;49.394;8.686;2023-06-22T04:08:23;100306.28;;;20.52;100.00
60099;BME280;62818;49.394;8.686;2023-06-22T04:09:23;100308.81;;;20.58;100.00
60099;BME280;62818;49.394;8.686;2023-06-22T04:10:24;100311.06;;;20.33;100.00
60099;BME280;62818;49.394;8.686;2023-06-22T04:11:24;100298.81;;;20.42;100.00
60099;BME280;62818;49.394;8.686;2023-06-22T04:12:25;100299.03;;;20.52;100.00
60099;BME280;62818;49.394;8.686;2023-06-22T04:13:25;100300.22;;;20.90;100.00
60099;BME280;62818;49.394;8.686;2023-06-22T04:14:26;100304.69;;;20.84;100.00
60099;BME280;62818;49.394;8.686;2023-06-22T04:15:26;100294.34;;;21.09;100.00
60099;BME280;62818;49.394;8.686;2023-06-22T04:16:27;100290.66;;;20.99;100.00
60099;BME280;62818;49.394;8.686;2023-06-22T04:17:28;100293.00;;;20.79;100.00
60099;BME280;62818;49.394;8.686;2023-06-22T04:18:28;100284.69;;;20.97;100.00
60099;BME280;62818;49.394;8.686;2023-06-22T04:19:29;100284.78;;;20.85;100.00
60099;BME280;62818;49.394;8.686;2023-06-22T04:20:31;100281.28;;;21.18;100.00
60099;BME280;62818;49.394;8.686;2023-06-22T04:21:32;100284.47;;;21.53;100.00
60099;BME280;62818;49.394;8.686;2023-06-22T04:22:32;100268.81;;;21.72;100.00
60099;BME280;62818;49.394;8.686;2023-06-22T04:23:33;100270.81;;;21.81;100.00
60099;BME280;62818;49.394;8.686;2023-06-22T04:24:33;100276.19;;;21.38;100.00
60099;BME280;62818;49.394;8.686;2023-06-22T04:25:34;100276.84;;;20.79;100.00
60099;BME280;62818;49.394;8.686;2023-06-22T04:26:34;100273.00;;;20.75;100.00
60099;BME280;62818;49.394;8.686;2023-06-22T04:27:37;100271.75;;;21.10;100.00
60099;BME280;62818;49.394;8.686;2023-06-22T04:28:40;100270.97;;;21.31;100.00
60099;BME280;62818;49.394;8.686;2023-06-22T04:29:41;100276.53;;;21.25;100.00
60099;BME280;62818;49.394;8.686;2023-06-22T04:30:49;100272.28;;;20.96;100.00
60099;BME280;62818;49.394;8.686;2023-06-22T04:31:51;100263.72;;;20.99;100.00
60099;BME280;62818;49.394;8.686;2023-06-22T04:32:51;100262.31;;;21.13;100.00
60099;BME280;62818;49.394;8.686;2023-06-22T04:33:59;100269.00;;;21.27;100.00
60099;BME280;62818;49.394;8.686;2023-06-22T04:35:06;100263.69;;;21.32;100.00
60099;BME280;62818;49.394;8.686;2023-06-22T04:36:07;100254.63;;;21.60;100.00
60099;BME280;62818;49.394;8.686;2023-06-22T04:37:08;100258.19;;;21.43;100.00
60099;BME280;62818;49.394;8.686;2023-06-22T04:38:08;100260.31;;;21.41;100.00
60099;BME280;62818;49.394;8.686;2023-06-22T04:39:10;100254.88;;;21.58;100.00
60099;BME280;62818;49.394;8.686;2023-06-22T04:40:11;100246.38;;;21.88;100.00
60099;BME280;62818;49.394;8.686;2023-06-22T04:41:14;100247.47;;;21.70;100.00
60099;BME280;62818;49.394;8.686;2023-06-22T04:42:26;100245.13;;;21.95;100.00
60099;BME280;62818;49.394;8.686;2023-06-22T04:43:27;100241.16;;;22.03;100.00
60099;BME280;62818;49.394;8.686;2023-06-22T04:44:30;100244.03;;;21.96;100.00
60099;BME280;62818;49.394;8.686;2023-06-22T04:45:30;100248.09;;;21.77;100.00
60099;BME280;62818;49.394;8.686;2023-06-22T04:46:31;100242.25;;;21.64;100.00
60099;BME280;62818;49.394;8.686;2023-06-22T04:47:34;100250.31;;;21.59;100.00
60099;BME280;62818;49.394;8.686;2023-06-22T04:48:34;100246.06;;;21.46;100.00
60099;BME280;62818;49.394;8.686;2023-06-22T04:49:36;100243.47;;;21.73;100.00
60099;BME280;62818;49.394;8.686;2023-06-22T04:50:37;100241.84;;;21.50;100.00
60099;BME280;62818;49.394;8.686;2023-06-22T04:51:40;100246.97;;;21.73;100.00
60099;BME280;62818;49.394;8.686;2023-06-22T04:52:42;100247.16;;;21.67;100.00
60099;BME280;62818;49.394;8.686;2023-06-22T04:53:43;100248.81;;;21.68;100.00
60099;BME280;62818;49.394;8.686;2023-06-22T04:54:43;100259.28;;;21.64;100.00
60099;BME280;62818;49.394;8.686;2023-06-22T04:55:47;100256.50;;;21.59;100.00
60099;BME280;62818;49.394;8.686;2023-06-22T04:56:49;100256.13;;;21.72;100.00
60099;BME280;62818;49.394;8.686;2023-06-22T04:57:56;100252.28;;;21.85;100.00
60099;BME280;62818;49.394;8.686;2023-06-22T04:59:04;100250.63;;;21.84;100.00
60099;BME280;62818;49.394;8.686;2023-06-22T05:00:05;100248.88;;;21.94;100.00
60099;BME280;62818;49.394;8.686;2023-06-22T05:01:18;100243.06;;;22.07;100.00
60099;BME280;62818;49.394;8.686;2023-06-22T05:02:22;100234.41;;;22.05;100.00
60099;BME280;62818;49.394;8.686;2023-06-22T05:03:32;100228.66;;;21.97;100.00
60099;BME280;62818;49.394;8.686;2023-06-22T05:04:32;100231.78;;;22.10;100.00
60099;BME280;62818;49.394;8.686;2023-06-22T05:05:35;100232.41;;;22.18;100.00
60099;BME280;62818;49.394;8.686;2023-06-22T05:06:36;100229.75;;;22.23;100.00
60099;BME280;62818;49.394;8.686;2023-06-22T05:07:36;100231.31;;;22.19;100.00
60099;BME280;62818;49.394;8.686;2023-06-22T05:08:37;100234.44;;;22.32;100.00
60099;BME280;62818;49.394;8.686;2023-06-22T05:09:41;100234.81;;;22.46;100.00
60099;BME280;62818;49.394;8.686;2023-06-22T05:10:44;100229.22;;;22.52;100.00
60099;BME280;62818;49.394;8.686;2023-06-22T05:11:45;100235.72;;;22.56;100.00
60099;BME280;62818;49.394;8.686;2023-06-22T05:12:46;100227.16;;;22.59;100.00
60099;BME280;62818;49.394;8.686;2023-06-22T05:13:47;100229.97;;;22.74;100.00
60099;BME280;62818;49.394;8.686;2023-06-22T05:14:47;100225.13;;;22.76;100.00
60099;BME280;62818;49.394;8.686;2023-06-22T05:15:48;100224.63;;;22.79;100.00
60099;BME280;62818;49.394;8.686;2023-06-22T05:16:48;100218.38;;;22.79;100.00
60099;BME280;62818;49.394;8.686;2023-06-22T05:17:49;100219.97;;;22.75;100.00
60099;BME280;62818;49.394;8.686;2023-06-22T05:18:51;100216.69;;;22.68;100.00
60099;BME280;62818;49.394;8.686;2023-06-22T05:19:53;100215.09;;;22.72;100.00
60099;BME280;62818;49.394;8.686;2023-06-22T05:20:55;100228.59;;;22.72;100.00
60099;BME280;62818;49.394;8.686;2023-06-22T05:21:55;100215.84;;;22.67;100.00
60099;BME280;62818;49.394;8.686;2023-06-22T05:22:56;100210.53;;;22.77;98.93
60099;BME280;62818;49.394;8.686;2023-06-22T05:23:57;100224.44;;;22.91;98.91
60099;BME280;62818;49.394;8.686;2023-06-22T05:25:00;100217.94;;;22.92;97.81
60099;BME280;62818;49.394;8.686;2023-06-22T05:26:00;100229.31;;;22.94;97.70
60099;BME280;62818;49.394;8.686;2023-06-22T05:27:01;100216.38;;;23.01;94.93
60099;BME280;62818;49.394;8.686;2023-06-22T05:28:01;100217.25;;;23.12;95.50
60099;BME280;62818;49.394;8.686;2023-06-22T05:29:07;100208.22;;;22.96;99.12